Santa Maria da Boa Vista, Brazil
Current Conditions -  °F | °C
As of 1:00 PM on Friday 21 Nov 2014 (Local Time) from SBPL Reporting Station
Broken Clouds Broken Clouds  
Wind Chill: 90°   Ceiling: 3500
Heat Index: 95°   Visibility: 6mi
Dew Point: 70°   Wind: 13mph
Humidity: 52%   Direction: 150°SSE
Pressure: 29.91"   Gusts: NA
Location:  8.81°S, 39.83°W
Report Text: SBPL 211600Z 15011KT 9999 BKN035 32/21 Q1013
Loading
Personal Weather Stations






























Interactive Weather Map New forecast layout! Learn more

10-Day Weather Forecast

Advertisements
Track Severe Weather on mobile